sensor_id;sensor_type;location;lat;lon;timestamp;pressure;altitude;pressure_sealevel;temperature;humidity
73860;BME280;62197;51.632;13.700;2024-01-06T00:00:12;99246.19;;;1.08;96.29
73860;BME280;62197;51.632;13.700;2024-01-06T00:02:38;99249.09;;;1.04;96.46
73860;BME280;62197;51.632;13.700;2024-01-06T00:05:04;99254.47;;;1.01;96.49
73860;BME280;62197;51.632;13.700;2024-01-06T00:07:30;99252.19;;;0.96;96.22
73860;BME280;62197;51.632;13.700;2024-01-06T00:09:56;99253.13;;;0.95;96.55
73860;BME280;62197;51.632;13.700;2024-01-06T00:12:21;99257.16;;;0.99;96.32
73860;BME280;62197;51.632;13.700;2024-01-06T00:14:46;99256.22;;;1.00;96.49
73860;BME280;62197;51.632;13.700;2024-01-06T00:17:11;99252.19;;;0.96;96.61
73860;BME280;62197;51.632;13.700;2024-01-06T00:19:37;99254.25;;;0.91;96.55
73860;BME280;62197;51.632;13.700;2024-01-06T00:22:02;99258.34;;;0.81;96.45
73860;BME280;62197;51.632;13.700;2024-01-06T00:24:28;99264.63;;;0.77;96.16
73860;BME280;62197;51.632;13.700;2024-01-06T00:26:53;99261.69;;;0.69;96.44
73860;BME280;62197;51.632;13.700;2024-01-06T00:29:18;99269.66;;;0.65;97.03
73860;BME280;62197;51.632;13.700;2024-01-06T00:31:44;99270.22;;;0.56;96.41
73860;BME280;62197;51.632;13.700;2024-01-06T00:34:09;99273.53;;;0.58;96.96
73860;BME280;62197;51.632;13.700;2024-01-06T00:36:35;99272.91;;;0.55;96.89
73860;BME280;62197;51.632;13.700;2024-01-06T00:39:00;99273.22;;;0.50;96.94
73860;BME280;62197;51.632;13.700;2024-01-06T00:41:25;99272.88;;;0.42;96.82
73860;BME280;62197;51.632;13.700;2024-01-06T00:43:51;99273.06;;;0.39;96.98
73860;BME280;62197;51.632;13.700;2024-01-06T00:46:16;99275.72;;;0.38;97.16
73860;BME280;62197;51.632;13.700;2024-01-06T00:48:42;99277.69;;;0.34;97.13
73860;BME280;62197;51.632;13.700;2024-01-06T00:51:07;99280.53;;;0.29;96.92
73860;BME280;62197;51.632;13.700;2024-01-06T00:53:33;99278.50;;;0.20;97.51
73860;BME280;62197;51.632;13.700;2024-01-06T00:55:58;99286.91;;;0.10;97.54
73860;BME280;62197;51.632;13.700;2024-01-06T00:58:23;99290.78;;;0.03;97.71
73860;BME280;62197;51.632;13.700;2024-01-06T01:00:49;99291.00;;;-0.01;97.34
73860;BME280;62197;51.632;13.700;2024-01-06T01:03:15;99296.53;;;-0.07;97.50
73860;BME280;62197;51.632;13.700;2024-01-06T01:05:40;99296.53;;;-0.07;97.41
73860;BME280;62197;51.632;13.700;2024-01-06T01:08:05;99299.97;;;-0.06;97.89
73860;BME280;62197;51.632;13.700;2024-01-06T01:10:31;99307.72;;;-0.06;98.12
73860;BME280;62197;51.632;13.700;2024-01-06T01:12:56;99304.47;;;-0.10;97.79
73860;BME280;62197;51.632;13.700;2024-01-06T01:15:21;99316.13;;;-0.03;98.01
73860;BME280;62197;51.632;13.700;2024-01-06T01:17:47;99311.69;;;-0.01;98.09
73860;BME280;62197;51.632;13.700;2024-01-06T01:20:12;99308.72;;;-0.09;97.82
73860;BME280;62197;51.632;13.700;2024-01-06T01:22:37;99316.28;;;-0.20;97.78
73860;BME280;62197;51.632;13.700;2024-01-06T01:25:03;99319.97;;;-0.24;97.88
73860;BME280;62197;51.632;13.700;2024-01-06T01:27:34;99312.47;;;-0.28;97.94
73860;BME280;62197;51.632;13.700;2024-01-06T01:30:00;99317.81;;;-0.31;97.64
73860;BME280;62197;51.632;13.700;2024-01-06T01:32:25;99316.44;;;-0.23;97.79
73860;BME280;62197;51.632;13.700;2024-01-06T01:34:50;99320.69;;;-0.22;98.12
73860;BME280;62197;51.632;13.700;2024-01-06T01:37:16;99318.38;;;-0.26;98.31
73860;BME280;62197;51.632;13.700;2024-01-06T01:39:41;99332.47;;;-0.32;98.01
73860;BME280;62197;51.632;13.700;2024-01-06T01:42:06;99324.75;;;-0.32;98.29
73860;BME280;62197;51.632;13.700;2024-01-06T01:44:32;99326.56;;;-0.34;98.16
73860;BME280;62197;51.632;13.700;2024-01-06T01:46:58;99330.81;;;-0.33;98.09
73860;BME280;62197;51.632;13.700;2024-01-06T01:49:23;99323.63;;;-0.28;98.20
73860;BME280;62197;51.632;13.700;2024-01-06T01:51:49;99318.34;;;-0.41;98.11
73860;BME280;62197;51.632;13.700;2024-01-06T01:54:15;99324.34;;;-0.54;98.33
73860;BME280;62197;51.632;13.700;2024-01-06T01:56:41;99325.94;;;-0.68;98.14
73860;BME280;62197;51.632;13.700;2024-01-06T01:59:14;99329.78;;;-0.75;98.33
73860;BME280;62197;51.632;13.700;2024-01-06T02:01:40;99324.19;;;-0.67;98.60
73860;BME280;62197;51.632;13.700;2024-01-06T02:04:06;99322.78;;;-0.73;98.56
73860;BME280;62197;51.632;13.700;2024-01-06T02:06:31;99315.47;;;-0.80;98.42
73860;BME280;62197;51.632;13.700;2024-01-06T02:08:57;99323.38;;;-0.83;98.27
73860;BME280;62197;51.632;13.700;2024-01-06T02:11:22;99318.47;;;-0.88;98.22
73860;BME280;62197;51.632;13.700;2024-01-06T02:13:48;99316.72;;;-0.87;98.34
73860;BME280;62197;51.632;13.700;2024-01-06T02:16:13;99322.78;;;-0.73;98.68
73860;BME280;62197;51.632;13.700;2024-01-06T02:18:38;99323.09;;;-0.63;98.89
73860;BME280;62197;51.632;13.700;2024-01-06T02:21:06;99331.09;;;-0.68;98.60
73860;BME280;62197;51.632;13.700;2024-01-06T02:23:34;99326.78;;;-0.67;99.05
73860;BME280;62197;51.632;13.700;2024-01-06T02:26:00;99325.78;;;-0.80;98.46
73860;BME280;62197;51.632;13.700;2024-01-06T02:28:25;99333.22;;;-0.90;98.45
73860;BME280;62197;51.632;13.700;2024-01-06T02:30:50;99337.81;;;-0.95;98.63
73860;BME280;62197;51.632;13.700;2024-01-06T02:33:16;99335.22;;;-0.95;98.41
73860;BME280;62197;51.632;13.700;2024-01-06T02:35:42;99336.13;;;-0.96;98.50
73860;BME280;62197;51.632;13.700;2024-01-06T02:38:07;99340.22;;;-0.92;98.58
73860;BME280;62197;51.632;13.700;2024-01-06T02:40:33;99342.13;;;-0.95;98.86
73860;BME280;62197;51.632;13.700;2024-01-06T02:42:59;99344.50;;;-1.07;98.01
73860;BME280;62197;51.632;13.700;2024-01-06T02:45:24;99345.13;;;-1.03;98.66
73860;BME280;62197;51.632;13.700;2024-01-06T02:47:50;99341.00;;;-1.06;98.71
73860;BME280;62197;51.632;13.700;2024-01-06T02:50:15;99340.09;;;-1.20;98.61
73860;BME280;62197;51.632;13.700;2024-01-06T02:52:41;99350.25;;;-1.17;98.33
73860;BME280;62197;51.632;13.700;2024-01-06T02:55:06;99346.63;;;-0.99;98.59
73860;BME280;62197;51.632;13.700;2024-01-06T02:57:32;99358.03;;;-1.03;98.57
73860;BME280;62197;51.632;13.700;2024-01-06T02:59:57;99350.50;;;-1.06;98.74
73860;BME280;62197;51.632;13.700;2024-01-06T03:02:23;99350.56;;;-1.08;98.88
73860;BME280;62197;51.632;13.700;2024-01-06T03:04:48;99358.13;;;-1.20;98.69
73860;BME280;62197;51.632;13.700;2024-01-06T03:07:14;99357.63;;;-1.27;98.77
73860;BME280;62197;51.632;13.700;2024-01-06T03:09:39;99355.66;;;-1.22;98.61
73860;BME280;62197;51.632;13.700;2024-01-06T03:12:06;99364.97;;;-1.19;98.53
73860;BME280;62197;51.632;13.700;2024-01-06T03:14:33;99355.81;;;-1.25;98.90
73860;BME280;62197;51.632;13.700;2024-01-06T03:16:59;99359.38;;;-1.27;98.69
73860;BME280;62197;51.632;13.700;2024-01-06T03:19:24;99366.22;;;-1.26;98.97
73860;BME280;62197;51.632;13.700;2024-01-06T03:21:52;99369.06;;;-1.15;99.01
73860;BME280;62197;51.632;13.700;2024-01-06T03:24:18;99360.63;;;-1.19;98.97
73860;BME280;62197;51.632;13.700;2024-01-06T03:26:43;99364.88;;;-1.18;98.74
73860;BME280;62197;51.632;13.700;2024-01-06T03:29:08;99375.44;;;-1.22;98.85
73860;BME280;62197;51.632;13.700;2024-01-06T03:31:34;99373.88;;;-1.25;99.14
73860;BME280;62197;51.632;13.700;2024-01-06T03:33:59;99380.44;;;-1.35;98.91
73860;BME280;62197;51.632;13.700;2024-01-06T03:36:25;99379.25;;;-1.45;98.83
73860;BME280;62197;51.632;13.700;2024-01-06T03:38:50;99382.91;;;-1.49;98.84
73860;BME280;62197;51.632;13.700;2024-01-06T03:41:15;99389.19;;;-1.55;98.75
73860;BME280;62197;51.632;13.700;2024-01-06T03:43:40;99385.31;;;-1.62;99.19
73860;BME280;62197;51.632;13.700;2024-01-06T03:46:06;99381.91;;;-1.47;99.05
73860;BME280;62197;51.632;13.700;2024-01-06T03:48:31;99382.56;;;-1.43;98.86
73860;BME280;62197;51.632;13.700;2024-01-06T03:50:58;99385.56;;;-1.51;98.71
73860;BME280;62197;51.632;13.700;2024-01-06T03:53:24;99395.28;;;-1.56;98.84
73860;BME280;62197;51.632;13.700;2024-01-06T03:55:49;99389.41;;;-1.58;99.11
73860;BME280;62197;51.632;13.700;2024-01-06T03:58:15;99392.97;;;-1.60;98.90
73860;BME280;62197;51.632;13.700;2024-01-06T04:00:40;99387.13;;;-1.64;99.15
73860;BME280;62197;51.632;13.700;2024-01-06T04:03:05;99394.88;;;-1.64;99.28
73860;BME280;62197;51.632;13.700;2024-01-06T04:05:32;99387.88;;;-1.62;99.05
73860;BME280;62197;51.632;13.700;2024-01-06T04:07:57;99390.84;;;-1.70;98.87
73860;BME280;62197;51.632;13.700;2024-01-06T04:10:22;99385.25;;;-1.78;98.88
73860;BME280;62197;51.632;13.700;2024-01-06T04:12:48;99395.81;;;-1.82;98.68
73860;BME280;62197;51.632;13.700;2024-01-06T04:15:13;99393.44;;;-1.87;98.89
73860;BME280;62197;51.632;13.700;2024-01-06T04:17:39;99391.16;;;-1.76;98.78
73860;BME280;62197;51.632;13.700;2024-01-06T04:20:05;99398.44;;;-1.67;99.15
73860;BME280;62197;51.632;13.700;2024-01-06T04:22:31;99397.38;;;-1.62;99.14
73860;BME280;62197;51.632;13.700;2024-01-06T04:24:56;99396.03;;;-1.54;99.04
73860;BME280;62197;51.632;13.700;2024-01-06T04:27:21;99395.94;;;-1.52;99.06
73860;BME280;62197;51.632;13.700;2024-01-06T04:29:46;99400.97;;;-1.34;98.71
73860;BME280;62197;51.632;13.700;2024-01-06T04:32:12;99412.13;;;-1.33;98.62
73860;BME280;62197;51.632;13.700;2024-01-06T04:34:37;99406.47;;;-1.40;98.67
73860;BME280;62197;51.632;13.700;2024-01-06T04:37:03;99406.69;;;-1.44;98.71
73860;BME280;62197;51.632;13.700;2024-01-06T04:39:28;99406.47;;;-1.40;98.59
73860;BME280;62197;51.632;13.700;2024-01-06T04:41:53;99407.06;;;-1.35;98.54
73860;BME280;62197;51.632;13.700;2024-01-06T04:44:20;99406.06;;;-1.32;98.69
73860;BME280;62197;51.632;13.700;2024-01-06T04:46:46;99401.16;;;-1.37;98.47
73860;BME280;62197;51.632;13.700;2024-01-06T04:49:12;99412.28;;;-1.36;98.63
73860;BME280;62197;51.632;13.700;2024-01-06T04:51:37;99415.03;;;-1.39;98.63
73860;BME280;62197;51.632;13.700;2024-01-06T04:54:03;99421.19;;;-1.42;98.68
73860;BME280;62197;51.632;13.700;2024-01-06T04:56:28;99423.09;;;-1.45;98.30
73860;BME280;62197;51.632;13.700;2024-01-06T04:58:53;99422.34;;;-1.47;98.62
73860;BME280;62197;51.632;13.700;2024-01-06T05:01:19;99419.00;;;-1.49;98.38
73860;BME280;62197;51.632;13.700;2024-01-06T05:03:44;99420.06;;;-1.53;98.64
73860;BME280;62197;51.632;13.700;2024-01-06T05:06:10;99416.66;;;-1.54;98.31
73860;BME280;62197;51.632;13.700;2024-01-06T05:08:35;99419.75;;;-1.47;98.86
73860;BME280;62197;51.632;13.700;2024-01-06T05:11:04;99418.75;;;-1.45;98.88
73860;BME280;62197;51.632;13.700;2024-01-06T05:13:30;99424.06;;;-1.48;98.58
73860;BME280;62197;51.632;13.700;2024-01-06T05:15:55;99434.00;;;-1.40;98.85
73860;BME280;62197;51.632;13.700;2024-01-06T05:18:21;99440.81;;;-1.39;98.73
73860;BME280;62197;51.632;13.700;2024-01-06T05:20:46;99441.78;;;-1.24;98.82
73860;BME280;62197;51.632;13.700;2024-01-06T05:23:12;99435.38;;;-1.17;98.62
73860;BME280;62197;51.632;13.700;2024-01-06T05:25:37;99434.06;;;-1.09;98.72
73860;BME280;62197;51.632;13.700;2024-01-06T05:28:03;99452.53;;;-1.16;98.71
73860;BME280;62197;51.632;13.700;2024-01-06T05:30:28;99446.03;;;-1.23;98.45
73860;BME280;62197;51.632;13.700;2024-01-06T05:32:53;99446.53;;;-1.17;98.80
73860;BME280;62197;51.632;13.700;2024-01-06T05:35:19;99455.28;;;-1.19;99.11
73860;BME280;62197;51.632;13.700;2024-01-06T05:37:44;99451.78;;;-1.18;98.51
73860;BME280;62197;51.632;13.700;2024-01-06T05:40:09;99460.78;;;-1.10;98.75
73860;BME280;62197;51.632;13.700;2024-01-06T05:42:36;99467.03;;;-1.14;98.86
73860;BME280;62197;51.632;13.700;2024-01-06T05:45:01;99472.09;;;-1.12;98.66
73860;BME280;62197;51.632;13.700;2024-01-06T05:47:27;99471.94;;;-1.09;98.58
73860;BME280;62197;51.632;13.700;2024-01-06T05:49:52;99468.09;;;-1.02;98.56
73860;BME280;62197;51.632;13.700;2024-01-06T05:52:17;99471.03;;;-1.08;98.69
73860;BME280;62197;51.632;13.700;2024-01-06T05:54:43;99473.44;;;-1.05;98.77
73860;BME280;62197;51.632;13.700;2024-01-06T05:57:08;99483.56;;;-1.02;98.58
73860;BME280;62197;51.632;13.700;2024-01-06T05:59:34;99484.34;;;-1.00;98.84
73860;BME280;62197;51.632;13.700;2024-01-06T06:01:59;99488.09;;;-0.90;98.85
73860;BME280;62197;51.632;13.700;2024-01-06T06:04:25;99497.03;;;-0.80;98.87
73860;BME280;62197;51.632;13.700;2024-01-06T06:06:50;99496.34;;;-0.83;99.07
73860;BME280;62197;51.632;13.700;2024-01-06T06:09:16;99505.03;;;-0.69;98.89
73860;BME280;62197;51.632;13.700;2024-01-06T06:11:41;99506.03;;;-0.55;99.05
73860;BME280;62197;51.632;13.700;2024-01-06T06:14:06;99509.88;;;-0.62;98.95
73860;BME280;62197;51.632;13.700;2024-01-06T06:16:32;99509.88;;;-0.62;98.93
73860;BME280;62197;51.632;13.700;2024-01-06T06:18:57;99519.38;;;-0.63;99.19
73860;BME280;62197;51.632;13.700;2024-01-06T06:21:23;99515.53;;;-0.56;98.75
73860;BME280;62197;51.632;13.700;2024-01-06T06:23:49;99527.53;;;-0.55;99.10
73860;BME280;62197;51.632;13.700;2024-01-06T06:26:14;99532.41;;;-0.50;99.40
73860;BME280;62197;51.632;13.700;2024-01-06T06:28:39;99539.69;;;-0.41;99.10
73860;BME280;62197;51.632;13.700;2024-01-06T06:31:05;99539.94;;;-0.30;99.42
73860;BME280;62197;51.632;13.700;2024-01-06T06:33:30;99554.78;;;-0.34;99.27
73860;BME280;62197;51.632;13.700;2024-01-06T06:35:55;99554.69;;;-0.32;99.40
73860;BME280;62197;51.632;13.700;2024-01-06T06:38:21;99555.69;;;-0.35;99.29
73860;BME280;62197;51.632;13.700;2024-01-06T06:40:46;99558.94;;;-0.31;99.39
73860;BME280;62197;51.632;13.700;2024-01-06T06:43:12;99559.53;;;-0.26;99.36
73860;BME280;62197;51.632;13.700;2024-01-06T06:45:38;99558.03;;;-0.30;99.67
73860;BME280;62197;51.632;13.700;2024-01-06T06:48:04;99559.69;;;-0.29;99.40
73860;BME280;62197;51.632;13.700;2024-01-06T06:50:29;99571.78;;;-0.29;99.29
73860;BME280;62197;51.632;13.700;2024-01-06T06:52:55;99571.78;;;-0.29;99.43
73860;BME280;62197;51.632;13.700;2024-01-06T06:55:20;99578.38;;;-0.24;99.46
73860;BME280;62197;51.632;13.700;2024-01-06T06:57:45;99575.78;;;-0.24;99.64
73860;BME280;62197;51.632;13.700;2024-01-06T07:00:11;99583.75;;;0.03;99.54
73860;BME280;62197;51.632;13.700;2024-01-06T07:02:36;99582.25;;;0.15;99.54
73860;BME280;62197;51.632;13.700;2024-01-06T07:05:02;99582.72;;;0.37;99.76
73860;BME280;62197;51.632;13.700;2024-01-06T07:07:27;99593.25;;;0.18;99.48
73860;BME280;62197;51.632;13.700;2024-01-06T07:09:53;99604.00;;;0.11;99.78
73860;BME280;62197;51.632;13.700;2024-01-06T07:12:18;99595.50;;;0.24;99.54
73860;BME280;62197;51.632;13.700;2024-01-06T07:14:44;99604.44;;;0.19;99.45
73860;BME280;62197;51.632;13.700;2024-01-06T07:17:09;99603.00;;;0.29;99.55
73860;BME280;62197;51.632;13.700;2024-01-06T07:19:35;99610.09;;;0.25;99.54
73860;BME280;62197;51.632;13.700;2024-01-06T07:22:01;99606.69;;;0.09;99.43
73860;BME280;62197;51.632;13.700;2024-01-06T07:24:26;99617.59;;;0.14;99.47
73860;BME280;62197;51.632;13.700;2024-01-06T07:26:52;99613.59;;;0.09;99.40
73860;BME280;62197;51.632;13.700;2024-01-06T07:29:17;99616.09;;;0.10;99.56
73860;BME280;62197;51.632;13.700;2024-01-06T07:31:42;99626.69;;;0.06;99.60
73860;BME280;62197;51.632;13.700;2024-01-06T07:34:07;99622.19;;;0.09;99.50
73860;BME280;62197;51.632;13.700;2024-01-06T07:36:33;99638.03;;;0.19;99.43
73860;BME280;62197;51.632;13.700;2024-01-06T07:38:58;99635.53;;;0.17;99.34
73860;BME280;62197;51.632;13.700;2024-01-06T07:41:23;99643.22;;;0.19;99.51
73860;BME280;62197;51.632;13.700;2024-01-06T07:43:49;99646.72;;;0.18;99.12
73860;BME280;62197;51.632;13.700;2024-01-06T07:46:14;99648.38;;;0.35;99.45
73860;BME280;62197;51.632;13.700;2024-01-06T07:48:40;99654.06;;;0.25;99.58
73860;BME280;62197;51.632;13.700;2024-01-06T07:51:05;99654.22;;;0.22;99.25
73860;BME280;62197;51.632;13.700;2024-01-06T07:53:31;99655.72;;;0.26;99.17
73860;BME280;62197;51.632;13.700;2024-01-06T07:55:56;99664.97;;;0.46;99.99
73860;BME280;62197;51.632;13.700;2024-01-06T07:58:22;99659.31;;;0.40;99.39
73860;BME280;62197;51.632;13.700;2024-01-06T08:00:47;99666.06;;;0.42;99.39
73860;BME280;62197;51.632;13.700;2024-01-06T08:03:13;99663.59;;;0.55;99.13
73860;BME280;62197;51.632;13.700;2024-01-06T08:05:38;99665.81;;;0.47;98.67
73860;BME280;62197;51.632;13.700;2024-01-06T08:08:07;99671.41;;;0.39;98.75
73860;BME280;62197;51.632;13.700;2024-01-06T08:10:32;99667.06;;;0.40;98.83
73860;BME280;62197;51.632;13.700;2024-01-06T08:12:57;99669.91;;;0.35;98.81
73860;BME280;62197;51.632;13.700;2024-01-06T08:15:24;99671.25;;;0.42;99.02
73860;BME280;62197;51.632;13.700;2024-01-06T08:17:49;99671.91;;;0.46;99.15
73860;BME280;62197;51.632;13.700;2024-01-06T08:20:14;99675.69;;;0.54;98.96
73860;BME280;62197;51.632;13.700;2024-01-06T08:22:39;99677.19;;;0.58;98.57
73860;BME280;62197;51.632;13.700;2024-01-06T08:25:05;99683.38;;;2.15;98.86
73860;BME280;62197;51.632;13.700;2024-01-06T08:27:34;99684.41;;;2.93;97.49
73860;BME280;62197;51.632;13.700;2024-01-06T08:30:01;99693.19;;;3.05;90.01
73860;BME280;62197;51.632;13.700;2024-01-06T08:32:26;99688.84;;;2.11;91.68
73860;BME280;62197;51.632;13.700;2024-01-06T08:34:52;99691.66;;;3.41;91.33
73860;BME280;62197;51.632;13.700;2024-01-06T08:37:17;99694.84;;;3.06;91.31
73860;BME280;62197;51.632;13.700;2024-01-06T08:39:42;99698.94;;;2.83;91.50
73860;BME280;62197;51.632;13.700;2024-01-06T08:42:08;99702.41;;;2.70;87.49
73860;BME280;62197;51.632;13.700;2024-01-06T08:44:33;99703.03;;;3.13;87.57
73860;BME280;62197;51.632;13.700;2024-01-06T08:46:59;99706.63;;;2.31;91.24
73860;BME280;62197;51.632;13.700;2024-01-06T08:49:24;99710.19;;;2.96;89.05
73860;BME280;62197;51.632;13.700;2024-01-06T08:51:49;99714.16;;;3.15;88.73
73860;BME280;62197;51.632;13.700;2024-01-06T08:54:15;99717.69;;;3.01;85.21
73860;BME280;62197;51.632;13.700;2024-01-06T08:56:41;99719.09;;;1.69;90.35
73860;BME280;62197;51.632;13.700;2024-01-06T08:59:06;99729.72;;;1.64;91.42
73860;BME280;62197;51.632;13.700;2024-01-06T09:01:31;99721.03;;;1.94;93.68
73860;BME280;62197;51.632;13.700;2024-01-06T09:03:57;99723.41;;;2.11;92.76
73860;BME280;62197;51.632;13.700;2024-01-06T09:06:30;99733.91;;;1.81;90.29
73860;BME280;62197;51.632;13.700;2024-01-06T09:08:56;99739.16;;;2.08;90.62
73860;BME280;62197;51.632;13.700;2024-01-06T09:11:21;99739.56;;;2.57;88.76
73860;BME280;62197;51.632;13.700;2024-01-06T09:13:47;99748.75;;;3.55;91.22
73860;BME280;62197;51.632;13.700;2024-01-06T09:16:14;99757.91;;;3.86;82.10
73860;BME280;62197;51.632;13.700;2024-01-06T09:18:40;99758.66;;;2.56;86.13
73860;BME280;62197;51.632;13.700;2024-01-06T09:21:05;99762.19;;;3.09;83.68
73860;BME280;62197;51.632;13.700;2024-01-06T09:23:30;99762.09;;;2.84;88.22
73860;BME280;62197;51.632;13.700;2024-01-06T09:25:57;99776.59;;;1.90;88.43
73860;BME280;62197;51.632;13.700;2024-01-06T09:28:23;99772.81;;;1.81;88.98
73860;BME280;62197;51.632;13.700;2024-01-06T09:30:48;99774.13;;;1.14;91.81
73860;BME280;62197;51.632;13.700;2024-01-06T09:33:14;99768.09;;;0.99;93.21
73860;BME280;62197;51.632;13.700;2024-01-06T09:35:41;99764.25;;;0.91;94.00
73860;BME280;62197;51.632;13.700;2024-01-06T09:38:07;99772.69;;;0.79;94.80
73860;BME280;62197;51.632;13.700;2024-01-06T09:40:33;99772.88;;;0.76;94.90
73860;BME280;62197;51.632;13.700;2024-01-06T09:42:59;99770.59;;;0.85;94.88
73860;BME280;62197;51.632;13.700;2024-01-06T09:45:25;99778.38;;;0.85;94.92
73860;BME280;62197;51.632;13.700;2024-01-06T09:47:54;99779.19;;;1.02;94.69
73860;BME280;62197;51.632;13.700;2024-01-06T09:50:21;99783.75;;;1.12;94.61
73860;BME280;62197;51.632;13.700;2024-01-06T09:52:47;99788.28;;;1.39;94.58
73860;BME280;62197;51.632;13.700;2024-01-06T09:55:23;99780.75;;;1.04;93.99
73860;BME280;62197;51.632;13.700;2024-01-06T09:57:50;99786.81;;;1.19;94.24
73860;BME280;62197;51.632;13.700;2024-01-06T10:00:16;99779.31;;;1.14;94.28
73860;BME280;62197;51.632;13.700;2024-01-06T10:02:42;99774.22;;;1.13;94.52
73860;BME280;62197;51.632;13.700;2024-01-06T10:05:08;99775.53;;;1.20;94.07
73860;BME280;62197;51.632;13.700;2024-01-06T10:07:35;99776.78;;;1.28;94.38
73860;BME280;62197;51.632;13.700;2024-01-06T10:10:00;99782.13;;;1.25;93.46
73860;BME280;62197;51.632;13.700;2024-01-06T10:12:26;99777.34;;;1.33;93.64
73860;BME280;62197;51.632;13.700;2024-01-06T10:14:52;99778.28;;;1.32;93.06
73860;BME280;62197;51.632;13.700;2024-01-06T10:17:17;99773.66;;;1.38;93.06
73860;BME280;62197;51.632;13.700;2024-01-06T10:19:46;99764.56;;;1.30;93.09
73860;BME280;62197;51.632;13.700;2024-01-06T10:22:12;99765.41;;;1.31;93.02
73860;BME280;62197;51.632;13.700;2024-01-06T10:24:38;99781.50;;;1.06;93.26
73860;BME280;62197;51.632;13.700;2024-01-06T10:27:03;99774.00;;;1.02;93.40
73860;BME280;62197;51.632;13.700;2024-01-06T10:29:29;99779.66;;;1.08;94.23
73860;BME280;62197;51.632;13.700;2024-01-06T10:31:54;99783.91;;;1.09;93.87
73860;BME280;62197;51.632;13.700;2024-01-06T10:34:20;99791.66;;;0.95;93.92
73860;BME280;62197;51.632;13.700;2024-01-06T10:36:46;99782.03;;;0.97;94.36
73860;BME280;62197;51.632;13.700;2024-01-06T10:39:13;99792.41;;;0.97;94.35
73860;BME280;62197;51.632;13.700;2024-01-06T10:41:41;99784.31;;;1.17;94.25
73860;BME280;62197;51.632;13.700;2024-01-06T10:44:07;99790.16;;;0.91;94.15
73860;BME280;62197;51.632;13.700;2024-01-06T10:46:34;99788.22;;;0.94;94.49
73860;BME280;62197;51.632;13.700;2024-01-06T10:49:01;99795.41;;;0.74;94.62
73860;BME280;62197;51.632;13.700;2024-01-06T10:51:27;99790.72;;;0.64;95.31
73860;BME280;62197;51.632;13.700;2024-01-06T10:53:55;99797.84;;;0.77;95.00
73860;BME280;62197;51.632;13.700;2024-01-06T10:56:23;99788.91;;;0.82;95.12
73860;BME280;62197;51.632;13.700;2024-01-06T10:58:49;99794.91;;;0.83;94.70
73860;BME280;62197;51.632;13.700;2024-01-06T11:01:20;99795.75;;;0.83;94.45
73860;BME280;62197;51.632;13.700;2024-01-06T11:03:47;99801.59;;;0.87;94.33
73860;BME280;62197;51.632;13.700;2024-01-06T11:06:13;99798.91;;;0.73;94.73
73860;BME280;62197;51.632;13.700;2024-01-06T11:08:45;99796.31;;;0.73;95.05
73860;BME280;62197;51.632;13.700;2024-01-06T11:11:18;99791.91;;;0.75;94.97
73860;BME280;62197;51.632;13.700;2024-01-06T11:13:44;99800.75;;;0.71;95.46
73860;BME280;62197;51.632;13.700;2024-01-06T11:16:11;99797.09;;;0.75;95.29
73860;BME280;62197;51.632;13.700;2024-01-06T11:18:40;99799.09;;;0.70;95.18
73860;BME280;62197;51.632;13.700;2024-01-06T11:21:21;99787.06;;;0.69;95.32
73860;BME280;62197;51.632;13.700;2024-01-06T11:24:15;99802.44;;;0.72;95.19
73860;BME280;62197;51.632;13.700;2024-01-06T11:26:44;99808.84;;;0.80;95.31
73860;BME280;62197;51.632;13.700;2024-01-06T11:29:10;99805.50;;;0.78;95.02
73860;BME280;62197;51.632;13.700;2024-01-06T11:31:37;99813.78;;;0.85;95.31
73860;BME280;62197;51.632;13.700;2024-01-06T11:34:18;99815.13;;;0.76;95.61
73860;BME280;62197;51.632;13.700;2024-01-06T11:36:50;99807.19;;;0.79;95.32
73860;BME280;62197;51.632;13.700;2024-01-06T11:39:34;99822.38;;;0.70;95.07
73860;BME280;62197;51.632;13.700;2024-01-06T11:42:00;99815.63;;;0.83;95.08
73860;BME280;62197;51.632;13.700;2024-01-06T11:44:28;99822.63;;;0.81;94.93
73860;BME280;62197;51.632;13.700;2024-01-06T11:46:56;99816.38;;;0.69;94.76
73860;BME280;62197;51.632;13.700;2024-01-06T11:49:22;99816.13;;;0.74;95.02
73860;BME280;62197;51.632;13.700;2024-01-06T11:51:51;99809.09;;;0.76;95.18
73860;BME280;62197;51.632;13.700;2024-01-06T11:54:18;99812.53;;;0.76;94.79
73860;BME280;62197;51.632;13.700;2024-01-06T11:56:43;99810.44;;;0.83;95.12
73860;BME280;62197;51.632;13.700;2024-01-06T11:59:08;99814.63;;;1.01;94.73
73860;BME280;62197;51.632;13.700;2024-01-06T12:01:37;99815.94;;;0.92;94.10
73860;BME280;62197;51.632;13.700;2024-01-06T12:04:03;99820.28;;;0.92;94.60
73860;BME280;62197;51.632;13.700;2024-01-06T12:06:33;99817.72;;;0.92;94.36
73860;BME280;62197;51.632;13.700;2024-01-06T12:09:09;99818.47;;;0.94;94.33
73860;BME280;62197;51.632;13.700;2024-01-06T12:11:34;99812.22;;;1.12;94.13
73860;BME280;62197;51.632;13.700;2024-01-06T12:14:00;99819.16;;;1.12;93.42
73860;BME280;62197;51.632;13.700;2024-01-06T12:16:25;99822.38;;;1.01;93.74
73860;BME280;62197;51.632;13.700;2024-01-06T12:18:53;99829.47;;;0.97;93.65
73860;BME280;62197;51.632;13.700;2024-01-06T12:21:22;99825.81;;;0.86;94.08
73860;BME280;62197;51.632;13.700;2024-01-06T12:23:47;99835.34;;;0.85;93.98
73860;BME280;62197;51.632;13.700;2024-01-06T12:26:13;99827.47;;;0.87;93.80
73860;BME280;62197;51.632;13.700;2024-01-06T12:28:38;99838.75;;;0.86;93.91
73860;BME280;62197;51.632;13.700;2024-01-06T12:31:04;99840.41;;;0.87;94.20
73860;BME280;62197;51.632;13.700;2024-01-06T12:33:30;99834.16;;;0.91;93.91
73860;BME280;62197;51.632;13.700;2024-01-06T12:35:57;99838.00;;;0.99;93.75
73860;BME280;62197;51.632;13.700;2024-01-06T12:38:24;99834.75;;;0.96;93.53
73860;BME280;62197;51.632;13.700;2024-01-06T12:40:53;99837.97;;;1.15;93.14
73860;BME280;62197;51.632;13.700;2024-01-06T12:43:19;99825.59;;;1.20;92.81
73860;BME280;62197;51.632;13.700;2024-01-06T12:45:44;99834.69;;;1.27;92.70
73860;BME280;62197;51.632;13.700;2024-01-06T12:48:10;99835.78;;;1.23;92.24